createdAt,value
2023-12-03T06:30:31.186Z,84.81
2023-12-03T06:33:23.398Z,84.71
2023-12-03T06:37:22.922Z,84.86
2023-12-03T06:41:03.523Z,84.94
2023-12-03T06:44:31.070Z,84.97
2023-12-03T06:47:06.926Z,84.68
2023-12-03T06:49:35.112Z,84.68
2023-12-03T06:52:03.537Z,84.78
2023-12-03T06:54:31.585Z,84.89
2023-12-03T06:56:59.548Z,84.93
2023-12-03T06:59:27.557Z,84.88
2023-12-03T07:02:24.140Z,84.83
2023-12-03T07:04:52.377Z,84.78
2023-12-03T07:09:39.756Z,84.58
2023-12-03T07:13:20.940Z,84.93
2023-12-03T07:17:02.278Z,85.40
2023-12-03T07:21:02.453Z,85.56
2023-12-03T07:23:29.908Z,85.45
2023-12-03T07:25:59.194Z,85.19
2023-12-03T07:28:26.412Z,84.99
2023-12-03T07:30:53.384Z,84.76
2023-12-03T07:33:20.695Z,84.56
2023-12-03T07:35:48.596Z,84.94
2023-12-03T07:38:15.583Z,85.27
2023-12-03T07:40:44.581Z,84.91
2023-12-03T07:43:14.094Z,84.97
2023-12-03T07:45:41.158Z,85.04
2023-12-03T07:48:10.136Z,84.89
2023-12-03T07:50:40.692Z,84.75
2023-12-03T07:53:09.151Z,84.68
2023-12-03T07:55:36.111Z,84.63
2023-12-03T07:58:39.701Z,84.66
2023-12-03T08:02:21.177Z,84.50
2023-12-03T08:06:17.951Z,84.40
2023-12-03T08:09:38.760Z,84.01
2023-12-03T08:13:31.985Z,83.95
2023-12-03T08:16:05.607Z,83.93
2023-12-03T08:18:34.914Z,83.76
2023-12-03T08:21:05.562Z,83.40
2023-12-03T08:23:37.911Z,82.76
2023-12-03T08:26:12.025Z,82.71
2023-12-03T08:29:34.927Z,82.79
2023-12-03T08:43:55.069Z,80.86
2023-12-03T08:47:02.382Z,80.07
2023-12-03T08:50:36.536Z,80.10
2023-12-03T08:54:00.799Z,79.42
2023-12-03T09:39:11.777Z,83.00
2023-12-03T09:47:18.310Z,82.33
2023-12-03T10:02:21.861Z,81.33
2023-12-03T10:11:20.205Z,81.76
2023-12-03T10:23:49.260Z,82.37
2023-12-03T10:31:31.097Z,82.14
2023-12-03T10:38:25.218Z,82.33
2023-12-03T10:43:32.619Z,82.39
2023-12-03T10:50:12.144Z,82.38
2023-12-03T10:58:09.229Z,82.87
2023-12-03T11:01:58.456Z,82.79
2023-12-03T11:22:32.837Z,82.69
2023-12-03T11:29:46.085Z,81.94
2023-12-03T11:38:26.485Z,82.25
2023-12-03T11:42:36.279Z,82.36
2023-12-03T11:50:41.044Z,82.68
2023-12-03T11:57:14.345Z,82.88
2023-12-03T12:12:17.972Z,82.54
2023-12-03T12:16:33.098Z,82.50
2023-12-03T12:20:45.283Z,82.43
2023-12-03T12:32:32.438Z,82.65
2023-12-03T12:36:42.556Z,82.76
2023-12-03T12:40:59.402Z,82.81
2023-12-03T12:44:46.903Z,83.18
2023-12-03T12:49:05.784Z,83.66
2023-12-03T12:58:17.504Z,85.28
2023-12-03T13:44:41.061Z,83.33
2023-12-03T13:48:23.998Z,83.26
2023-12-03T13:50:54.842Z,82.81
2023-12-03T13:53:29.878Z,82.78
2023-12-03T14:00:37.088Z,82.23
2023-12-03T14:09:06.818Z,82.11
2023-12-03T14:23:04.426Z,82.15
2023-12-03T14:27:47.271Z,82.12
2023-12-03T15:42:00.729Z,83.24
2023-12-03T16:05:33.874Z,83.01
2023-12-03T16:09:20.915Z,82.88
2023-12-03T16:25:08.748Z,81.94
2023-12-03T16:41:30.121Z,82.77
2023-12-03T16:49:37.944Z,83.07
2023-12-03T16:57:34.244Z,83.41
2023-12-03T17:01:20.132Z,84.15
2023-12-03T17:10:44.288Z,83.82
2023-12-03T17:14:12.372Z,84.12
2023-12-03T17:17:01.343Z,84.18
2023-12-03T17:22:57.566Z,84.09
2023-12-03T17:25:27.111Z,84.05
2023-12-03T17:28:37.538Z,83.53
2023-12-03T17:31:46.358Z,83.60
2023-12-03T17:35:02.392Z,83.27
2023-12-03T17:42:58.197Z,82.72
2023-12-03T17:46:17.802Z,82.86
2023-12-03T17:49:34.692Z,83.10
2023-12-03T17:57:05.308Z,83.23
2023-12-03T18:11:45.330Z,82.83
2023-12-03T18:15:47.363Z,82.22
2023-12-03T18:19:57.365Z,82.09
2023-12-03T18:24:16.818Z,82.80
2023-12-03T18:34:46.052Z,82.42
2023-12-03T18:37:57.396Z,81.93
2023-12-03T18:43:26.027Z,81.42
2023-12-03T18:46:20.146Z,81.19
2023-12-03T18:48:48.960Z,81.45
2023-12-03T18:51:17.492Z,81.16
2023-12-03T18:53:45.695Z,80.67
2023-12-03T18:56:13.714Z,80.52
2023-12-03T18:58:53.712Z,80.63
2023-12-03T19:01:41.996Z,80.78
2023-12-03T19:04:10.092Z,81.02
2023-12-03T19:06:38.380Z,81.17
2023-12-03T19:09:08.057Z,81.35
2023-12-03T19:11:36.091Z,81.56
2023-12-03T19:14:04.470Z,81.90
2023-12-03T19:16:32.668Z,82.07
2023-12-03T19:19:03.141Z,81.70
2023-12-03T19:21:31.104Z,81.36
2023-12-03T19:24:01.413Z,82.01
2023-12-03T19:26:29.837Z,82.34
2023-12-03T19:28:59.402Z,81.86
2023-12-03T19:31:27.433Z,81.57
2023-12-03T19:33:56.106Z,81.18
2023-12-03T19:36:24.906Z,81.30
2023-12-03T19:38:53.460Z,80.92
2023-12-03T19:41:21.398Z,80.99
2023-12-03T19:43:49.235Z,81.09
2023-12-03T19:46:17.145Z,80.97
2023-12-03T19:48:46.274Z,80.86
2023-12-03T19:51:14.302Z,80.73
2023-12-03T19:53:47.411Z,80.99
2023-12-03T19:56:15.362Z,81.08
2023-12-03T19:58:44.007Z,81.10
2023-12-03T20:01:32.003Z,81.03
2023-12-03T20:04:00.520Z,81.12
2023-12-03T20:06:28.604Z,81.02
2023-12-03T20:08:56.914Z,81.00
2023-12-03T20:11:24.929Z,80.93
2023-12-03T20:13:52.995Z,80.96
2023-12-03T20:16:21.128Z,80.96
2023-12-03T20:18:49.646Z,81.02
2023-12-03T20:21:19.599Z,80.91
2023-12-03T20:23:50.489Z,81.25
2023-12-03T20:26:22.201Z,81.41
2023-12-03T20:28:50.716Z,81.29
2023-12-03T20:31:27.308Z,81.08
2023-12-03T20:33:55.705Z,81.36
2023-12-03T20:36:25.889Z,81.97
2023-12-03T20:38:56.156Z,82.17
2023-12-03T20:41:24.995Z,82.40
2023-12-03T20:43:54.007Z,82.03
2023-12-03T20:46:22.931Z,82.55
2023-12-03T20:48:51.085Z,82.93
2023-12-03T20:51:19.426Z,82.38
2023-12-03T20:53:47.450Z,81.61
2023-12-03T20:56:15.834Z,81.93
2023-12-03T20:58:44.860Z,82.37
2023-12-03T21:01:13.540Z,82.61
2023-12-03T21:03:42.432Z,82.76
2023-12-03T21:06:11.703Z,82.67
2023-12-03T21:08:39.924Z,82.80
2023-12-03T21:11:08.186Z,82.67
2023-12-03T21:13:38.113Z,82.39
2023-12-03T21:16:07.457Z,82.79
2023-12-03T21:18:35.413Z,82.56
2023-12-03T21:21:03.633Z,82.33
2023-12-03T21:23:31.990Z,82.16
2023-12-03T21:25:59.922Z,82.55
2023-12-03T21:28:27.817Z,82.70
2023-12-03T21:30:56.427Z,82.39
2023-12-03T21:33:25.026Z,82.78
2023-12-03T21:35:58.025Z,82.35
2023-12-03T21:38:28.124Z,82.00
2023-12-03T21:40:57.058Z,82.47
2023-12-03T21:43:26.108Z,82.63
2023-12-03T21:45:56.370Z,82.05
2023-12-03T21:48:25.464Z,82.40
2023-12-03T21:51:39.897Z,82.74
2023-12-03T21:54:21.615Z,83.08
2023-12-03T21:56:50.027Z,82.85
2023-12-03T21:59:18.660Z,82.89
2023-12-03T22:01:46.656Z,83.38
2023-12-03T22:04:15.815Z,83.15
2023-12-03T22:06:43.769Z,82.79
2023-12-03T22:09:16.454Z,82.89
2023-12-03T22:11:45.679Z,82.98
2023-12-03T22:14:17.522Z,83.20
2023-12-03T22:16:45.467Z,83.50
2023-12-03T22:19:14.092Z,83.38
2023-12-03T22:21:42.227Z,83.96
2023-12-03T22:24:10.970Z,83.80
2023-12-03T22:26:39.417Z,83.44
2023-12-03T22:29:07.588Z,83.23
2023-12-03T22:31:38.832Z,83.46
2023-12-03T22:34:07.703Z,83.65
2023-12-03T22:36:35.853Z,84.00
2023-12-03T22:39:04.004Z,83.66
2023-12-03T22:41:32.105Z,83.66
2023-12-03T22:44:00.693Z,83.64
2023-12-03T22:46:29.526Z,83.57
2023-12-03T22:48:58.959Z,83.44
2023-12-03T22:51:27.933Z,84.01
2023-12-03T22:53:56.270Z,84.64
2023-12-03T22:56:24.849Z,84.66
2023-12-03T22:58:53.658Z,84.52
2023-12-03T23:01:21.561Z,84.78
2023-12-03T23:03:49.471Z,84.38
2023-12-03T23:06:17.461Z,84.94
2023-12-03T23:08:45.334Z,85.03
2023-12-03T23:11:13.398Z,85.18
2023-12-03T23:13:41.351Z,85.70
2023-12-03T23:16:10.973Z,85.38
2023-12-03T23:18:39.091Z,85.29
2023-12-03T23:21:07.279Z,85.75
2023-12-03T23:23:35.163Z,86.37
2023-12-03T23:26:03.032Z,86.34
2023-12-03T23:28:31.044Z,86.43
2023-12-03T23:30:59.785Z,86.13
2023-12-03T23:33:30.505Z,85.79
2023-12-03T23:35:58.514Z,86.41
2023-12-03T23:38:26.594Z,86.57
2023-12-03T23:40:54.522Z,86.49
2023-12-03T23:43:22.527Z,86.45
2023-12-03T23:45:50.495Z,86.88
2023-12-03T23:48:18.694Z,87.05
2023-12-03T23:50:46.654Z,87.16
2023-12-03T23:53:14.789Z,87.02
2023-12-03T23:55:45.351Z,87.22
2023-12-03T23:58:50.615Z,87.47
